sensor_id;sensor_type;location;lat;lon;timestamp;P1;durP1;ratioP1;P2;durP2;ratioP2
39994;SDS011;25686;51.908;10.418;2023-09-07T00:00:35;7.35;;;4.60;;
39994;SDS011;25686;51.908;10.418;2023-09-07T00:02:36;5.60;;;4.65;;
39994;SDS011;25686;51.908;10.418;2023-09-07T00:04:38;6.93;;;4.32;;
39994;SDS011;25686;51.908;10.418;2023-09-07T00:06:40;5.28;;;4.32;;
39994;SDS011;25686;51.908;10.418;2023-09-07T00:08:44;6.72;;;4.63;;
39994;SDS011;25686;51.908;10.418;2023-09-07T00:10:45;5.63;;;4.57;;
39994;SDS011;25686;51.908;10.418;2023-09-07T00:12:46;7.40;;;4.57;;
39994;SDS011;25686;51.908;10.418;2023-09-07T00:14:46;8.02;;;4.35;;
39994;SDS011;25686;51.908;10.418;2023-09-07T00:16:47;7.60;;;4.60;;
39994;SDS011;25686;51.908;10.418;2023-09-07T00:18:48;5.97;;;4.45;;
39994;SDS011;25686;51.908;10.418;2023-09-07T00:20:49;7.93;;;4.30;;
39994;SDS011;25686;51.908;10.418;2023-09-07T00:22:50;6.57;;;4.43;;
39994;SDS011;25686;51.908;10.418;2023-09-07T00:24:51;5.75;;;4.00;;
39994;SDS011;25686;51.908;10.418;2023-09-07T00:26:52;6.18;;;4.40;;
39994;SDS011;25686;51.908;10.418;2023-09-07T00:28:53;7.63;;;4.80;;
39994;SDS011;25686;51.908;10.418;2023-09-07T00:30:54;6.82;;;4.43;;
39994;SDS011;25686;51.908;10.418;2023-09-07T00:32:55;8.30;;;4.45;;
39994;SDS011;25686;51.908;10.418;2023-09-07T00:34:56;11.18;;;4.60;;
39994;SDS011;25686;51.908;10.418;2023-09-07T00:36:57;5.93;;;4.72;;
39994;SDS011;25686;51.908;10.418;2023-09-07T00:38:58;5.50;;;4.80;;
39994;SDS011;25686;51.908;10.418;2023-09-07T00:40:59;6.85;;;4.45;;
39994;SDS011;25686;51.908;10.418;2023-09-07T00:42:59;6.65;;;5.10;;
39994;SDS011;25686;51.908;10.418;2023-09-07T00:45:00;8.05;;;4.70;;
39994;SDS011;25686;51.908;10.418;2023-09-07T00:47:01;6.55;;;4.70;;
39994;SDS011;25686;51.908;10.418;2023-09-07T00:49:02;6.80;;;5.05;;
39994;SDS011;25686;51.908;10.418;2023-09-07T00:51:04;5.22;;;4.72;;
39994;SDS011;25686;51.908;10.418;2023-09-07T00:53:05;5.53;;;4.75;;
39994;SDS011;25686;51.908;10.418;2023-09-07T00:55:06;5.57;;;4.63;;
39994;SDS011;25686;51.908;10.418;2023-09-07T00:57:07;5.93;;;4.68;;
39994;SDS011;25686;51.908;10.418;2023-09-07T00:59:08;6.40;;;4.55;;
39994;SDS011;25686;51.908;10.418;2023-09-07T01:01:10;6.38;;;4.57;;
39994;SDS011;25686;51.908;10.418;2023-09-07T01:03:11;6.50;;;4.70;;
39994;SDS011;25686;51.908;10.418;2023-09-07T01:05:12;6.63;;;4.70;;
39994;SDS011;25686;51.908;10.418;2023-09-07T01:07:14;6.30;;;5.28;;
39994;SDS011;25686;51.908;10.418;2023-09-07T01:09:19;8.20;;;4.57;;
39994;SDS011;25686;51.908;10.418;2023-09-07T01:11:20;8.40;;;4.90;;
39994;SDS011;25686;51.908;10.418;2023-09-07T01:13:22;8.20;;;4.75;;
39994;SDS011;25686;51.908;10.418;2023-09-07T01:15:23;7.53;;;4.75;;
39994;SDS011;25686;51.908;10.418;2023-09-07T01:17:24;8.13;;;5.00;;
39994;SDS011;25686;51.908;10.418;2023-09-07T01:19:25;12.00;;;5.22;;
39994;SDS011;25686;51.908;10.418;2023-09-07T01:21:27;8.85;;;4.70;;
39994;SDS011;25686;51.908;10.418;2023-09-07T01:23:28;8.95;;;5.18;;
39994;SDS011;25686;51.908;10.418;2023-09-07T01:25:29;7.45;;;4.82;;
39994;SDS011;25686;51.908;10.418;2023-09-07T01:27:32;7.60;;;4.97;;
39994;SDS011;25686;51.908;10.418;2023-09-07T01:29:33;6.57;;;4.90;;
39994;SDS011;25686;51.908;10.418;2023-09-07T01:31:35;5.93;;;4.97;;
39994;SDS011;25686;51.908;10.418;2023-09-07T01:33:36;6.57;;;4.88;;
39994;SDS011;25686;51.908;10.418;2023-09-07T01:35:37;5.38;;;4.35;;
39994;SDS011;25686;51.908;10.418;2023-09-07T01:37:39;6.60;;;4.72;;
39994;SDS011;25686;51.908;10.418;2023-09-07T01:39:41;9.85;;;5.00;;
39994;SDS011;25686;51.908;10.418;2023-09-07T01:41:42;6.07;;;4.88;;
39994;SDS011;25686;51.908;10.418;2023-09-07T01:43:43;7.85;;;5.38;;
39994;SDS011;25686;51.908;10.418;2023-09-07T01:45:44;11.18;;;4.50;;
39994;SDS011;25686;51.908;10.418;2023-09-07T01:47:45;8.23;;;5.03;;
39994;SDS011;25686;51.908;10.418;2023-09-07T01:49:46;8.38;;;5.10;;
39994;SDS011;25686;51.908;10.418;2023-09-07T01:51:47;7.60;;;4.78;;
39994;SDS011;25686;51.908;10.418;2023-09-07T01:53:48;5.65;;;4.50;;
39994;SDS011;25686;51.908;10.418;2023-09-07T01:55:49;7.95;;;4.78;;
39994;SDS011;25686;51.908;10.418;2023-09-07T01:57:50;5.75;;;4.32;;
39994;SDS011;25686;51.908;10.418;2023-09-07T01:59:51;5.93;;;4.63;;
39994;SDS011;25686;51.908;10.418;2023-09-07T02:01:52;5.75;;;4.57;;
39994;SDS011;25686;51.908;10.418;2023-09-07T02:03:53;10.27;;;4.43;;
39994;SDS011;25686;51.908;10.418;2023-09-07T02:05:54;8.13;;;5.18;;
39994;SDS011;25686;51.908;10.418;2023-09-07T02:07:55;6.30;;;4.82;;
39994;SDS011;25686;51.908;10.418;2023-09-07T02:09:56;9.25;;;5.00;;
39994;SDS011;25686;51.908;10.418;2023-09-07T02:11:57;5.88;;;4.50;;
39994;SDS011;25686;51.908;10.418;2023-09-07T02:13:58;7.63;;;4.70;;
39994;SDS011;25686;51.908;10.418;2023-09-07T02:16:02;8.50;;;4.68;;
39994;SDS011;25686;51.908;10.418;2023-09-07T02:18:04;8.15;;;4.45;;
39994;SDS011;25686;51.908;10.418;2023-09-07T02:20:05;5.68;;;4.60;;
39994;SDS011;25686;51.908;10.418;2023-09-07T02:22:10;16.02;;;4.82;;
39994;SDS011;25686;51.908;10.418;2023-09-07T02:24:11;6.78;;;4.80;;
39994;SDS011;25686;51.908;10.418;2023-09-07T02:26:12;7.13;;;4.47;;
39994;SDS011;25686;51.908;10.418;2023-09-07T02:28:13;5.85;;;4.55;;
39994;SDS011;25686;51.908;10.418;2023-09-07T02:30:14;7.03;;;4.85;;
39994;SDS011;25686;51.908;10.418;2023-09-07T02:32:15;7.82;;;4.32;;
39994;SDS011;25686;51.908;10.418;2023-09-07T02:34:16;6.20;;;4.95;;
39994;SDS011;25686;51.908;10.418;2023-09-07T02:36:17;8.23;;;4.80;;
39994;SDS011;25686;51.908;10.418;2023-09-07T02:38:18;7.22;;;5.10;;
39994;SDS011;25686;51.908;10.418;2023-09-07T02:40:19;8.27;;;5.10;;
39994;SDS011;25686;51.908;10.418;2023-09-07T02:42:20;6.38;;;4.95;;
39994;SDS011;25686;51.908;10.418;2023-09-07T02:44:21;8.35;;;4.95;;
39994;SDS011;25686;51.908;10.418;2023-09-07T02:46:22;7.28;;;4.93;;
39994;SDS011;25686;51.908;10.418;2023-09-07T02:48:23;7.90;;;4.78;;
39994;SDS011;25686;51.908;10.418;2023-09-07T02:50:24;9.00;;;5.28;;
39994;SDS011;25686;51.908;10.418;2023-09-07T02:52:25;6.05;;;4.68;;
39994;SDS011;25686;51.908;10.418;2023-09-07T02:54:26;8.50;;;5.32;;
39994;SDS011;25686;51.908;10.418;2023-09-07T02:56:27;7.38;;;4.75;;
39994;SDS011;25686;51.908;10.418;2023-09-07T02:58:28;6.70;;;5.30;;
39994;SDS011;25686;51.908;10.418;2023-09-07T03:00:28;7.82;;;5.30;;
39994;SDS011;25686;51.908;10.418;2023-09-07T03:02:29;7.85;;;4.80;;
39994;SDS011;25686;51.908;10.418;2023-09-07T03:04:30;6.25;;;5.32;;
39994;SDS011;25686;51.908;10.418;2023-09-07T03:06:31;7.82;;;5.00;;
39994;SDS011;25686;51.908;10.418;2023-09-07T03:08:32;6.38;;;4.93;;
39994;SDS011;25686;51.908;10.418;2023-09-07T03:10:36;7.05;;;5.20;;
39994;SDS011;25686;51.908;10.418;2023-09-07T03:12:39;9.20;;;5.05;;
39994;SDS011;25686;51.908;10.418;2023-09-07T03:14:42;5.32;;;4.60;;
39994;SDS011;25686;51.908;10.418;2023-09-07T03:16:44;12.55;;;5.93;;
39994;SDS011;25686;51.908;10.418;2023-09-07T03:18:45;8.00;;;4.78;;
39994;SDS011;25686;51.908;10.418;2023-09-07T03:20:46;7.15;;;5.50;;
39994;SDS011;25686;51.908;10.418;2023-09-07T03:22:47;9.35;;;5.38;;
39994;SDS011;25686;51.908;10.418;2023-09-07T03:24:50;7.57;;;5.40;;
39994;SDS011;25686;51.908;10.418;2023-09-07T03:26:51;6.88;;;4.68;;
39994;SDS011;25686;51.908;10.418;2023-09-07T03:28:52;8.32;;;5.10;;
39994;SDS011;25686;51.908;10.418;2023-09-07T03:30:53;9.00;;;4.93;;
39994;SDS011;25686;51.908;10.418;2023-09-07T03:32:55;8.60;;;5.03;;
39994;SDS011;25686;51.908;10.418;2023-09-07T03:34:56;6.93;;;5.30;;
39994;SDS011;25686;51.908;10.418;2023-09-07T03:36:57;9.65;;;5.30;;
39994;SDS011;25686;51.908;10.418;2023-09-07T03:38:58;9.35;;;5.30;;
39994;SDS011;25686;51.908;10.418;2023-09-07T03:40:59;8.82;;;5.25;;
39994;SDS011;25686;51.908;10.418;2023-09-07T03:42:59;6.70;;;5.13;;
39994;SDS011;25686;51.908;10.418;2023-09-07T03:45:00;11.82;;;5.60;;
39994;SDS011;25686;51.908;10.418;2023-09-07T03:47:03;8.82;;;5.53;;
39994;SDS011;25686;51.908;10.418;2023-09-07T03:49:04;8.20;;;5.20;;
39994;SDS011;25686;51.908;10.418;2023-09-07T03:51:06;6.68;;;5.00;;
39994;SDS011;25686;51.908;10.418;2023-09-07T03:53:07;7.63;;;5.20;;
39994;SDS011;25686;51.908;10.418;2023-09-07T03:55:08;8.82;;;4.97;;
39994;SDS011;25686;51.908;10.418;2023-09-07T03:57:09;7.43;;;5.07;;
39994;SDS011;25686;51.908;10.418;2023-09-07T03:59:10;6.03;;;5.20;;
39994;SDS011;25686;51.908;10.418;2023-09-07T04:01:11;9.88;;;4.82;;
39994;SDS011;25686;51.908;10.418;2023-09-07T04:03:12;15.77;;;5.95;;
39994;SDS011;25686;51.908;10.418;2023-09-07T04:05:13;7.22;;;5.72;;
39994;SDS011;25686;51.908;10.418;2023-09-07T04:07:14;6.78;;;5.60;;
39994;SDS011;25686;51.908;10.418;2023-09-07T04:09:14;7.18;;;5.60;;
39994;SDS011;25686;51.908;10.418;2023-09-07T04:11:15;9.52;;;5.43;;
39994;SDS011;25686;51.908;10.418;2023-09-07T04:13:16;7.45;;;5.32;;
39994;SDS011;25686;51.908;10.418;2023-09-07T04:15:17;6.90;;;5.25;;
39994;SDS011;25686;51.908;10.418;2023-09-07T04:17:18;8.65;;;6.13;;
39994;SDS011;25686;51.908;10.418;2023-09-07T04:19:19;7.47;;;5.93;;
39994;SDS011;25686;51.908;10.418;2023-09-07T04:21:20;8.98;;;5.55;;
39994;SDS011;25686;51.908;10.418;2023-09-07T04:23:21;8.60;;;5.95;;
39994;SDS011;25686;51.908;10.418;2023-09-07T04:25:22;8.15;;;5.30;;
39994;SDS011;25686;51.908;10.418;2023-09-07T04:27:23;8.52;;;6.07;;
39994;SDS011;25686;51.908;10.418;2023-09-07T04:29:24;9.30;;;5.50;;
39994;SDS011;25686;51.908;10.418;2023-09-07T04:31:25;7.10;;;6.05;;
39994;SDS011;25686;51.908;10.418;2023-09-07T04:33:29;6.53;;;5.75;;
39994;SDS011;25686;51.908;10.418;2023-09-07T04:35:30;9.77;;;6.22;;
39994;SDS011;25686;51.908;10.418;2023-09-07T04:37:32;8.25;;;5.93;;
39994;SDS011;25686;51.908;10.418;2023-09-07T04:39:33;11.63;;;6.38;;
39994;SDS011;25686;51.908;10.418;2023-09-07T04:41:34;7.70;;;6.38;;
39994;SDS011;25686;51.908;10.418;2023-09-07T04:43:35;7.90;;;6.32;;
39994;SDS011;25686;51.908;10.418;2023-09-07T04:45:36;8.18;;;5.43;;
39994;SDS011;25686;51.908;10.418;2023-09-07T04:47:36;9.18;;;6.18;;
39994;SDS011;25686;51.908;10.418;2023-09-07T04:49:38;10.35;;;6.28;;
39994;SDS011;25686;51.908;10.418;2023-09-07T04:51:38;9.75;;;6.00;;
39994;SDS011;25686;51.908;10.418;2023-09-07T04:53:39;8.70;;;6.40;;
39994;SDS011;25686;51.908;10.418;2023-09-07T04:55:40;7.10;;;6.10;;
39994;SDS011;25686;51.908;10.418;2023-09-07T04:57:41;10.00;;;6.28;;
39994;SDS011;25686;51.908;10.418;2023-09-07T04:59:42;11.05;;;6.13;;
39994;SDS011;25686;51.908;10.418;2023-09-07T05:01:43;7.43;;;6.07;;
39994;SDS011;25686;51.908;10.418;2023-09-07T05:03:44;8.48;;;6.53;;
39994;SDS011;25686;51.908;10.418;2023-09-07T05:05:50;10.60;;;6.45;;
39994;SDS011;25686;51.908;10.418;2023-09-07T05:07:51;8.27;;;5.90;;
39994;SDS011;25686;51.908;10.418;2023-09-07T05:09:52;8.48;;;6.55;;
39994;SDS011;25686;51.908;10.418;2023-09-07T05:11:53;9.82;;;6.55;;
39994;SDS011;25686;51.908;10.418;2023-09-07T05:13:54;8.32;;;6.55;;
39994;SDS011;25686;51.908;10.418;2023-09-07T05:15:55;8.50;;;6.13;;
39994;SDS011;25686;51.908;10.418;2023-09-07T05:17:56;7.72;;;6.18;;
39994;SDS011;25686;51.908;10.418;2023-09-07T05:19:57;10.30;;;6.43;;
39994;SDS011;25686;51.908;10.418;2023-09-07T05:21:58;9.20;;;6.80;;
39994;SDS011;25686;51.908;10.418;2023-09-07T05:23:59;10.32;;;6.70;;
39994;SDS011;25686;51.908;10.418;2023-09-07T05:26:00;8.45;;;6.18;;
39994;SDS011;25686;51.908;10.418;2023-09-07T05:28:01;7.38;;;6.07;;
39994;SDS011;25686;51.908;10.418;2023-09-07T05:30:02;8.52;;;6.05;;
39994;SDS011;25686;51.908;10.418;2023-09-07T05:32:03;10.70;;;6.28;;
39994;SDS011;25686;51.908;10.418;2023-09-07T05:34:04;7.18;;;5.85;;
39994;SDS011;25686;51.908;10.418;2023-09-07T05:36:05;8.43;;;6.47;;
39994;SDS011;25686;51.908;10.418;2023-09-07T05:38:06;8.70;;;6.18;;
39994;SDS011;25686;51.908;10.418;2023-09-07T05:40:07;7.65;;;6.10;;
39994;SDS011;25686;51.908;10.418;2023-09-07T05:42:09;7.10;;;5.78;;
39994;SDS011;25686;51.908;10.418;2023-09-07T05:44:10;9.25;;;5.68;;
39994;SDS011;25686;51.908;10.418;2023-09-07T05:46:10;8.45;;;5.78;;
39994;SDS011;25686;51.908;10.418;2023-09-07T05:48:11;8.90;;;5.50;;
39994;SDS011;25686;51.908;10.418;2023-09-07T05:50:12;7.68;;;5.70;;
39994;SDS011;25686;51.908;10.418;2023-09-07T05:52:13;8.85;;;6.40;;
39994;SDS011;25686;51.908;10.418;2023-09-07T05:54:14;10.63;;;5.93;;
39994;SDS011;25686;51.908;10.418;2023-09-07T05:56:15;7.90;;;6.07;;
39994;SDS011;25686;51.908;10.418;2023-09-07T05:58:16;10.32;;;6.15;;
39994;SDS011;25686;51.908;10.418;2023-09-07T06:00:17;8.85;;;5.85;;
39994;SDS011;25686;51.908;10.418;2023-09-07T06:02:18;10.45;;;5.82;;
39994;SDS011;25686;51.908;10.418;2023-09-07T06:04:19;11.35;;;5.90;;
39994;SDS011;25686;51.908;10.418;2023-09-07T06:06:20;7.78;;;5.85;;
39994;SDS011;25686;51.908;10.418;2023-09-07T06:08:21;10.02;;;5.47;;
39994;SDS011;25686;51.908;10.418;2023-09-07T06:10:22;6.95;;;5.85;;
39994;SDS011;25686;51.908;10.418;2023-09-07T06:12:23;6.50;;;5.43;;
39994;SDS011;25686;51.908;10.418;2023-09-07T06:14:24;6.88;;;5.60;;
39994;SDS011;25686;51.908;10.418;2023-09-07T06:16:24;8.48;;;5.90;;
39994;SDS011;25686;51.908;10.418;2023-09-07T06:18:25;7.65;;;5.43;;
39994;SDS011;25686;51.908;10.418;2023-09-07T06:20:26;7.47;;;5.72;;
39994;SDS011;25686;51.908;10.418;2023-09-07T06:22:27;8.70;;;6.15;;
39994;SDS011;25686;51.908;10.418;2023-09-07T06:24:28;10.10;;;6.18;;
39994;SDS011;25686;51.908;10.418;2023-09-07T06:26:29;10.68;;;6.75;;
39994;SDS011;25686;51.908;10.418;2023-09-07T06:28:30;7.63;;;6.47;;
39994;SDS011;25686;51.908;10.418;2023-09-07T06:30:31;8.45;;;6.75;;
39994;SDS011;25686;51.908;10.418;2023-09-07T06:32:32;10.55;;;6.50;;
39994;SDS011;25686;51.908;10.418;2023-09-07T06:34:33;12.93;;;6.78;;
39994;SDS011;25686;51.908;10.418;2023-09-07T06:36:34;8.75;;;7.03;;
39994;SDS011;25686;51.908;10.418;2023-09-07T06:38:35;9.20;;;6.75;;
39994;SDS011;25686;51.908;10.418;2023-09-07T06:40:36;8.73;;;6.72;;
39994;SDS011;25686;51.908;10.418;2023-09-07T06:42:37;10.30;;;6.38;;
39994;SDS011;25686;51.908;10.418;2023-09-07T06:44:38;10.20;;;6.63;;
39994;SDS011;25686;51.908;10.418;2023-09-07T06:46:39;10.40;;;6.03;;
39994;SDS011;25686;51.908;10.418;2023-09-07T06:48:40;8.70;;;6.45;;
39994;SDS011;25686;51.908;10.418;2023-09-07T06:50:41;8.10;;;5.97;;
39994;SDS011;25686;51.908;10.418;2023-09-07T06:52:42;12.55;;;5.72;;
39994;SDS011;25686;51.908;10.418;2023-09-07T06:54:43;7.05;;;5.70;;
39994;SDS011;25686;51.908;10.418;2023-09-07T06:56:44;8.95;;;5.35;;
39994;SDS011;25686;51.908;10.418;2023-09-07T06:58:45;7.88;;;5.38;;
39994;SDS011;25686;51.908;10.418;2023-09-07T07:00:46;9.10;;;6.15;;
39994;SDS011;25686;51.908;10.418;2023-09-07T07:02:48;10.27;;;5.53;;
39994;SDS011;25686;51.908;10.418;2023-09-07T07:04:48;9.75;;;5.65;;
39994;SDS011;25686;51.908;10.418;2023-09-07T07:06:49;8.18;;;5.70;;
39994;SDS011;25686;51.908;10.418;2023-09-07T07:08:51;9.50;;;5.88;;
39994;SDS011;25686;51.908;10.418;2023-09-07T07:10:52;7.78;;;5.50;;
39994;SDS011;25686;51.908;10.418;2023-09-07T07:12:53;9.18;;;6.18;;
39994;SDS011;25686;51.908;10.418;2023-09-07T07:14:54;7.35;;;5.63;;
39994;SDS011;25686;51.908;10.418;2023-09-07T07:16:55;9.93;;;5.80;;
39994;SDS011;25686;51.908;10.418;2023-09-07T07:18:56;8.73;;;5.75;;
39994;SDS011;25686;51.908;10.418;2023-09-07T07:20:57;11.32;;;5.57;;
39994;SDS011;25686;51.908;10.418;2023-09-07T07:22:58;8.25;;;5.53;;
39994;SDS011;25686;51.908;10.418;2023-09-07T07:24:59;8.82;;;5.57;;
39994;SDS011;25686;51.908;10.418;2023-09-07T07:27:05;7.85;;;5.45;;
39994;SDS011;25686;51.908;10.418;2023-09-07T07:29:06;14.23;;;5.82;;
39994;SDS011;25686;51.908;10.418;2023-09-07T07:31:07;9.43;;;5.75;;
39994;SDS011;25686;51.908;10.418;2023-09-07T07:33:09;8.80;;;5.50;;
39994;SDS011;25686;51.908;10.418;2023-09-07T07:35:11;13.77;;;5.47;;
39994;SDS011;25686;51.908;10.418;2023-09-07T07:37:12;11.82;;;5.45;;
39994;SDS011;25686;51.908;10.418;2023-09-07T07:39:13;13.23;;;6.32;;
39994;SDS011;25686;51.908;10.418;2023-09-07T07:41:15;8.07;;;5.53;;
39994;SDS011;25686;51.908;10.418;2023-09-07T07:43:16;8.15;;;5.38;;
39994;SDS011;25686;51.908;10.418;2023-09-07T07:45:17;10.95;;;5.47;;
39994;SDS011;25686;51.908;10.418;2023-09-07T07:47:20;8.15;;;5.20;;
39994;SDS011;25686;51.908;10.418;2023-09-07T07:49:20;11.60;;;5.82;;
39994;SDS011;25686;51.908;10.418;2023-09-07T07:51:21;9.27;;;4.45;;
39994;SDS011;25686;51.908;10.418;2023-09-07T07:53:22;9.00;;;5.70;;
39994;SDS011;25686;51.908;10.418;2023-09-07T07:55:23;9.27;;;5.22;;
39994;SDS011;25686;51.908;10.418;2023-09-07T07:57:24;7.38;;;5.30;;
39994;SDS011;25686;51.908;10.418;2023-09-07T07:59:25;8.50;;;5.50;;
39994;SDS011;25686;51.908;10.418;2023-09-07T08:01:26;10.45;;;5.20;;
39994;SDS011;25686;51.908;10.418;2023-09-07T08:03:29;7.40;;;5.68;;
39994;SDS011;25686;51.908;10.418;2023-09-07T08:05:31;5.28;;;4.72;;
39994;SDS011;25686;51.908;10.418;2023-09-07T08:07:32;9.55;;;5.22;;
39994;SDS011;25686;51.908;10.418;2023-09-07T08:09:34;11.10;;;5.78;;
39994;SDS011;25686;51.908;10.418;2023-09-07T08:11:35;13.32;;;5.90;;
39994;SDS011;25686;51.908;10.418;2023-09-07T08:13:36;10.60;;;5.93;;
39994;SDS011;25686;51.908;10.418;2023-09-07T08:15:37;12.35;;;5.25;;
39994;SDS011;25686;51.908;10.418;2023-09-07T08:17:38;8.38;;;5.95;;
39994;SDS011;25686;51.908;10.418;2023-09-07T08:19:39;12.90;;;5.80;;
39994;SDS011;25686;51.908;10.418;2023-09-07T08:21:40;13.00;;;5.88;;
39994;SDS011;25686;51.908;10.418;2023-09-07T08:23:42;9.55;;;6.00;;
39994;SDS011;25686;51.908;10.418;2023-09-07T08:25:43;8.15;;;5.50;;
39994;SDS011;25686;51.908;10.418;2023-09-07T08:27:46;11.10;;;5.55;;
39994;SDS011;25686;51.908;10.418;2023-09-07T08:29:47;14.40;;;5.65;;
39994;SDS011;25686;51.908;10.418;2023-09-07T08:31:51;11.40;;;5.55;;
39994;SDS011;25686;51.908;10.418;2023-09-07T08:33:52;10.77;;;5.47;;
39994;SDS011;25686;51.908;10.418;2023-09-07T08:35:55;12.40;;;5.80;;
39994;SDS011;25686;51.908;10.418;2023-09-07T08:37:56;13.93;;;5.68;;
39994;SDS011;25686;51.908;10.418;2023-09-07T08:39:58;11.10;;;6.10;;
39994;SDS011;25686;51.908;10.418;2023-09-07T08:41:59;7.57;;;5.60;;
39994;SDS011;25686;51.908;10.418;2023-09-07T08:44:00;6.68;;;5.20;;
39994;SDS011;25686;51.908;10.418;2023-09-07T08:46:15;10.18;;;5.22;;
39994;SDS011;25686;51.908;10.418;2023-09-07T08:48:16;9.95;;;5.60;;
39994;SDS011;25686;51.908;10.418;2023-09-07T08:50:17;12.98;;;5.45;;
39994;SDS011;25686;51.908;10.418;2023-09-07T08:52:19;7.72;;;5.70;;
39994;SDS011;25686;51.908;10.418;2023-09-07T08:54:21;7.20;;;5.60;;
39994;SDS011;25686;51.908;10.418;2023-09-07T08:56:23;8.73;;;5.78;;
39994;SDS011;25686;51.908;10.418;2023-09-07T08:58:24;8.23;;;5.78;;
39994;SDS011;25686;51.908;10.418;2023-09-07T09:00:25;11.73;;;5.15;;
39994;SDS011;25686;51.908;10.418;2023-09-07T09:02:26;12.25;;;5.50;;
39994;SDS011;25686;51.908;10.418;2023-09-07T09:04:27;14.80;;;4.75;;
39994;SDS011;25686;51.908;10.418;2023-09-07T09:06:28;8.98;;;4.90;;
39994;SDS011;25686;51.908;10.418;2023-09-07T09:08:29;10.32;;;5.63;;
39994;SDS011;25686;51.908;10.418;2023-09-07T09:10:30;10.85;;;5.00;;
39994;SDS011;25686;51.908;10.418;2023-09-07T09:12:31;10.15;;;5.40;;
39994;SDS011;25686;51.908;10.418;2023-09-07T09:14:32;11.20;;;5.20;;
39994;SDS011;25686;51.908;10.418;2023-09-07T09:16:33;10.15;;;5.22;;
39994;SDS011;25686;51.908;10.418;2023-09-07T09:18:34;8.75;;;5.22;;
39994;SDS011;25686;51.908;10.418;2023-09-07T09:20:37;11.20;;;5.00;;
39994;SDS011;25686;51.908;10.418;2023-09-07T09:22:38;5.97;;;5.00;;
39994;SDS011;25686;51.908;10.418;2023-09-07T09:24:39;9.82;;;4.90;;
39994;SDS011;25686;51.908;10.418;2023-09-07T09:26:40;9.50;;;4.95;;
39994;SDS011;25686;51.908;10.418;2023-09-07T09:28:41;7.60;;;4.80;;
39994;SDS011;25686;51.908;10.418;2023-09-07T09:30:45;7.93;;;4.70;;
39994;SDS011;25686;51.908;10.418;2023-09-07T09:32:46;9.10;;;5.43;;
39994;SDS011;25686;51.908;10.418;2023-09-07T09:34:48;11.65;;;4.57;;
39994;SDS011;25686;51.908;10.418;2023-09-07T09:36:49;9.85;;;4.90;;
39994;SDS011;25686;51.908;10.418;2023-09-07T09:38:51;9.70;;;5.32;;
39994;SDS011;25686;51.908;10.418;2023-09-07T09:40:55;11.23;;;4.68;;
39994;SDS011;25686;51.908;10.418;2023-09-07T09:42:56;7.78;;;4.53;;
39994;SDS011;25686;51.908;10.418;2023-09-07T09:44:58;7.55;;;5.25;;
39994;SDS011;25686;51.908;10.418;2023-09-07T09:46:59;7.65;;;4.88;;
39994;SDS011;25686;51.908;10.418;2023-09-07T09:49:00;8.25;;;5.13;;
39994;SDS011;25686;51.908;10.418;2023-09-07T09:51:03;8.45;;;4.85;;
39994;SDS011;25686;51.908;10.418;2023-09-07T09:53:05;11.35;;;5.30;;
39994;SDS011;25686;51.908;10.418;2023-09-07T09:55:09;6.97;;;5.43;;
39994;SDS011;25686;51.908;10.418;2023-09-07T09:57:12;10.65;;;5.60;;
39994;SDS011;25686;51.908;10.418;2023-09-07T09:59:14;8.82;;;5.38;;
39994;SDS011;25686;51.908;10.418;2023-09-07T10:01:15;6.63;;;5.00;;
39994;SDS011;25686;51.908;10.418;2023-09-07T10:05:17;7.22;;;5.50;;
39994;SDS011;25686;51.908;10.418;2023-09-07T10:07:19;9.40;;;5.50;;
39994;SDS011;25686;51.908;10.418;2023-09-07T10:09:20;8.90;;;5.65;;
39994;SDS011;25686;51.908;10.418;2023-09-07T10:11:30;9.32;;;5.20;;
39994;SDS011;25686;51.908;10.418;2023-09-07T10:13:32;9.75;;;5.57;;
39994;SDS011;25686;51.908;10.418;2023-09-07T10:15:36;5.60;;;4.97;;
39994;SDS011;25686;51.908;10.418;2023-09-07T10:17:38;8.77;;;6.25;;
39994;SDS011;25686;51.908;10.418;2023-09-07T10:19:39;12.90;;;5.78;;
39994;SDS011;25686;51.908;10.418;2023-09-07T10:21:48;6.43;;;5.40;;
39994;SDS011;25686;51.908;10.418;2023-09-07T10:23:49;8.10;;;5.55;;
39994;SDS011;25686;51.908;10.418;2023-09-07T10:25:52;10.65;;;5.93;;
39994;SDS011;25686;51.908;10.418;2023-09-07T10:27:55;9.55;;;5.68;;
39994;SDS011;25686;51.908;10.418;2023-09-07T10:29:56;10.48;;;5.93;;
39994;SDS011;25686;51.908;10.418;2023-09-07T10:32:04;10.52;;;5.53;;
39994;SDS011;25686;51.908;10.418;2023-09-07T10:34:09;9.32;;;5.85;;
39994;SDS011;25686;51.908;10.418;2023-09-07T10:36:22;5.70;;;5.10;;
39994;SDS011;25686;51.908;10.418;2023-09-07T10:38:23;5.85;;;5.00;;
39994;SDS011;25686;51.908;10.418;2023-09-07T10:40:24;6.72;;;5.00;;
39994;SDS011;25686;51.908;10.418;2023-09-07T10:42:26;6.43;;;5.25;;
39994;SDS011;25686;51.908;10.418;2023-09-07T10:44:27;9.05;;;5.20;;
39994;SDS011;25686;51.908;10.418;2023-09-07T10:46:28;6.82;;;5.03;;
39994;SDS011;25686;51.908;10.418;2023-09-07T10:48:31;10.60;;;5.70;;
39994;SDS011;25686;51.908;10.418;2023-09-07T10:50:41;9.50;;;5.40;;
39994;SDS011;25686;51.908;10.418;2023-09-07T10:52:42;10.73;;;5.53;;
39994;SDS011;25686;51.908;10.418;2023-09-07T10:54:44;10.82;;;5.45;;
39994;SDS011;25686;51.908;10.418;2023-09-07T10:56:46;11.30;;;5.50;;
39994;SDS011;25686;51.908;10.418;2023-09-07T10:58:47;8.30;;;5.32;;
39994;SDS011;25686;51.908;10.418;2023-09-07T11:00:52;8.77;;;5.45;;
39994;SDS011;25686;51.908;10.418;2023-09-07T11:02:53;9.48;;;4.90;;
39994;SDS011;25686;51.908;10.418;2023-09-07T11:04:54;9.45;;;5.30;;
39994;SDS011;25686;51.908;10.418;2023-09-07T11:06:55;5.90;;;5.00;;
39994;SDS011;25686;51.908;10.418;2023-09-07T11:08:59;6.10;;;5.40;;
39994;SDS011;25686;51.908;10.418;2023-09-07T11:11:00;10.13;;;5.25;;
39994;SDS011;25686;51.908;10.418;2023-09-07T11:13:05;9.55;;;5.53;;
39994;SDS011;25686;51.908;10.418;2023-09-07T11:15:09;9.80;;;5.47;;
39994;SDS011;25686;51.908;10.418;2023-09-07T11:17:10;10.98;;;5.50;;
39994;SDS011;25686;51.908;10.418;2023-09-07T11:19:11;10.77;;;5.18;;
39994;SDS011;25686;51.908;10.418;2023-09-07T11:21:15;11.02;;;5.47;;
39994;SDS011;25686;51.908;10.418;2023-09-07T11:23:19;10.00;;;5.38;;
39994;SDS011;25686;51.908;10.418;2023-09-07T11:25:20;9.13;;;5.15;;
39994;SDS011;25686;51.908;10.418;2023-09-07T11:27:21;12.43;;;5.43;;
39994;SDS011;25686;51.908;10.418;2023-09-07T11:29:22;13.65;;;6.07;;
39994;SDS011;25686;51.908;10.418;2023-09-07T11:31:23;10.68;;;5.50;;
39994;SDS011;25686;51.908;10.418;2023-09-07T11:33:24;10.70;;;5.22;;
39994;SDS011;25686;51.908;10.418;2023-09-07T11:35:25;12.07;;;5.45;;
39994;SDS011;25686;51.908;10.418;2023-09-07T11:37:26;10.60;;;5.55;;
39994;SDS011;25686;51.908;10.418;2023-09-07T11:39:27;8.40;;;5.38;;
39994;SDS011;25686;51.908;10.418;2023-09-07T11:41:28;8.73;;;5.65;;
39994;SDS011;25686;51.908;10.418;2023-09-07T11:43:29;9.13;;;5.13;;
39994;SDS011;25686;51.908;10.418;2023-09-07T11:45:30;8.30;;;5.15;;
39994;SDS011;25686;51.908;10.418;2023-09-07T11:47:32;7.97;;;5.55;;
39994;SDS011;25686;51.908;10.418;2023-09-07T11:49:34;9.38;;;5.90;;
39994;SDS011;25686;51.908;10.418;2023-09-07T11:51:35;7.47;;;5.38;;
39994;SDS011;25686;51.908;10.418;2023-09-07T11:53:36;8.85;;;5.20;;
39994;SDS011;25686;51.908;10.418;2023-09-07T11:55:37;7.45;;;5.65;;
39994;SDS011;25686;51.908;10.418;2023-09-07T11:57:39;6.75;;;5.28;;
39994;SDS011;25686;51.908;10.418;2023-09-07T11:59:41;8.95;;;5.20;;